Time;durP1;ratioP1;P1;durP2;ratioP2;P2;SDS_P1;SDS_P2;PMS_P1;PMS_P2;Temp;Humidity;BMP_temperature;BMP_pressure;BME280_temperature;BME280_humidity;BME280_pressure;Samples;Min_cycle;Max_cycle;Signal;HPM_P1;HPM_P2
2023/01/21 00:00:30;;;;;;;34.78;13.43;;;;;;;-148.88;100.00;78380.06;5100101;28;20032;-79
2023/01/21 00:02:55;;;;;;;33.42;14.38;;;;;;;-148.88;100.00;78382.09;5101711;28;20088;-79
2023/01/21 00:05:21;;;;;;;33.30;13.52;;;;;;;-148.88;100.00;78394.28;5100501;28;20031;-78
2023/01/21 00:07:46;;;;;;;39.50;14.57;;;;;;;-148.88;100.00;78398.34;5101247;28;20023;-80
2023/01/21 00:10:11;;;;;;;35.17;14.55;;;;;;;-148.88;100.00;78402.41;5101264;28;20036;-79
2023/01/21 00:12:37;;;;;;;30.95;14.57;;;;;;;-148.88;100.00;78394.28;5101529;28;20028;-78
2023/01/21 00:15:03;;;;;;;37.53;14.77;;;;;;;-148.88;100.00;78402.41;5101570;28;20483;-79
2023/01/21 00:17:34;;;;;;;31.65;12.52;;;;;;;-148.88;100.00;78402.41;5099850;28;20522;-78
2023/01/21 00:19:59;;;;;;;29.13;12.55;;;;;;;-148.88;100.00;78408.50;5099354;28;20016;-79
2023/01/21 00:22:24;;;;;;;31.77;13.40;;;;;;;-148.88;100.00;78406.47;5100704;28;20115;-80
2023/01/21 00:24:50;;;;;;;36.50;13.07;;;;;;;-148.88;100.00;78416.63;5105818;28;20051;-79
2023/01/21 00:27:15;;;;;;;33.97;12.82;;;;;;;-148.88;100.00;78422.75;5105961;28;20032;-79
2023/01/21 00:29:40;;;;;;;28.80;13.13;;;;;;;-148.88;100.00;78428.84;5103048;28;20035;-79
2023/01/21 00:32:05;;;;;;;27.55;12.48;;;;;;;-148.88;100.00;78432.91;5100699;28;20020;-79
2023/01/21 00:34:31;;;;;;;29.58;12.60;;;;;;;-148.88;100.00;78434.94;5099132;28;20076;-78
2023/01/21 00:36:56;;;;;;;28.70;11.55;;;;;;;-148.88;100.00;78430.88;5099120;28;20024;-79
2023/01/21 00:39:21;;;;;;;31.88;13.13;;;;;;;-148.88;100.00;78455.25;5099442;28;20020;-79
2023/01/21 00:41:47;;;;;;;27.60;11.57;;;;;;;-148.88;100.00;78463.38;5102096;28;20034;-79
2023/01/21 00:44:12;;;;;;;26.52;12.30;;;;;;;-148.88;100.00;78471.53;5099424;28;20036;-79
2023/01/21 00:46:37;;;;;;;26.60;11.90;;;;;;;-148.88;100.00;78481.69;5100655;28;20382;-79
2023/01/21 00:49:02;;;;;;;28.65;11.25;;;;;;;-148.88;100.00;78487.78;5100467;28;20031;-79
2023/01/21 00:51:28;;;;;;;27.45;13.05;;;;;;;-148.88;100.00;78495.91;5100374;28;20035;-78
2023/01/21 00:53:53;;;;;;;26.30;11.50;;;;;;;-148.88;100.00;78489.81;5100513;28;20028;-79
2023/01/21 00:56:18;;;;;;;28.92;11.38;;;;;;;-148.88;100.00;78495.91;5099966;28;20100;-79
2023/01/21 00:58:44;;;;;;;30.85;12.20;;;;;;;-148.88;100.00;78512.19;5098445;28;20066;-79
2023/01/21 01:01:10;;;;;;;27.95;12.13;;;;;;;-148.88;100.00;78514.22;5100155;28;20375;-79
2023/01/21 01:03:36;;;;;;;27.73;12.13;;;;;;;-148.88;100.00;78520.31;5098923;28;20031;-79
2023/01/21 01:06:04;;;;;;;33.78;13.05;;;;;;;-148.88;100.00;78512.19;5098510;28;20443;-79
2023/01/21 01:08:30;;;;;;;26.40;11.32;;;;;;;-148.88;100.00;78528.44;5099804;28;20020;-79
2023/01/21 01:10:56;;;;;;;27.05;11.88;;;;;;;-148.88;100.00;78538.59;5097186;28;20043;-79
2023/01/21 01:13:21;;;;;;;32.33;12.15;;;;;;;-148.88;100.00;78550.78;5099959;28;20085;-80
2023/01/21 01:15:47;;;;;;;34.53;12.85;;;;;;;-148.88;100.00;78540.63;5098328;28;20028;-79
2023/01/21 01:18:12;;;;;;;35.53;14.02;;;;;;;-148.88;100.00;78540.63;5098999;28;20074;-80
2023/01/21 01:20:41;;;;;;;31.00;13.63;;;;;;;-148.88;100.00;78540.63;5100643;28;20028;-80
2023/01/21 01:23:07;;;;;;;35.30;13.45;;;;;;;-148.88;100.00;78540.63;5099221;28;20035;-79
2023/01/21 01:25:33;;;;;;;33.05;12.20;;;;;;;-148.88;100.00;78528.44;5100085;28;20020;-79
2023/01/21 01:27:59;;;;;;;33.10;13.32;;;;;;;-148.88;100.00;78552.81;5098276;28;20034;-79
2023/01/21 01:30:24;;;;;;;33.92;14.13;;;;;;;-148.88;100.00;78560.97;5099543;28;20087;-79
2023/01/21 01:32:49;;;;;;;37.20;13.77;;;;;;;-148.88;100.00;78569.09;5099971;28;20103;-80
2023/01/21 01:35:15;;;;;;;34.92;13.98;;;;;;;-148.88;100.00;78563.00;5099541;28;20490;-79
2023/01/21 01:37:40;;;;;;;36.83;15.20;;;;;;;-148.88;100.00;78560.97;5099664;28;20024;-80
2023/01/21 01:40:06;;;;;;;39.60;14.40;;;;;;;-148.88;100.00;78558.94;5100011;28;20370;-79
2023/01/21 01:42:31;;;;;;;40.17;15.85;;;;;;;-148.88;100.00;78560.97;5099801;28;20024;-80
2023/01/21 01:44:59;;;;;;;39.30;15.45;;;;;;;-148.88;100.00;78569.09;5099646;28;20020;-80
2023/01/21 01:47:42;;;;;;;54.90;17.75;;;;;;;-148.88;100.00;78573.16;5099658;28;20099;-79
2023/01/21 01:50:11;;;;;;;44.43;17.83;;;;;;;-148.88;100.00;78575.19;5099181;28;20028;-79
2023/01/21 01:52:38;;;;;;;53.40;19.05;;;;;;;-148.88;100.00;78577.22;5099391;28;20053;-79
2023/01/21 01:55:05;;;;;;;49.15;17.60;;;;;;;-148.88;100.00;78589.41;5099194;28;20020;-80
2023/01/21 01:57:38;;;;;;;47.08;15.98;;;;;;;-148.88;100.00;78589.41;5102295;28;20026;-80
2023/01/21 02:00:07;;;;;;;52.13;17.30;;;;;;;-148.88;100.00;78589.41;5099516;28;20402;-80
2023/01/21 02:02:33;;;;;;;66.30;19.05;;;;;;;-148.88;100.00;78597.53;5106569;28;20031;-80
2023/01/21 02:05:05;;;;;;;46.90;17.63;;;;;;;-148.88;100.00;78605.69;5110072;28;20370;-80
2023/01/21 02:07:38;;;;;;;52.17;18.05;;;;;;;-148.88;100.00;78601.59;5107548;28;20103;-80
2023/01/21 02:10:06;;;;;;;53.53;18.35;;;;;;;-148.88;100.00;78607.72;5098951;28;20035;-80
2023/01/21 02:12:32;;;;;;;46.95;18.85;;;;;;;-148.88;100.00;78613.81;5098477;28;20024;-80
2023/01/21 02:14:58;;;;;;;50.67;18.25;;;;;;;-148.88;100.00;78615.84;5099518;28;20027;-80
2023/01/21 02:17:45;;;;;;;50.78;18.15;;;;;;;-148.88;100.00;78611.78;5100605;28;20016;-79
2023/01/21 02:20:31;;;;;;;56.45;19.20;;;;;;;-148.88;100.00;78609.75;5099790;28;20024;-80
2023/01/21 02:23:22;;;;;;;55.03;18.77;;;;;;;-148.88;100.00;78626.00;5096412;28;20029;-79
2023/01/21 02:26:11;;;;;;;57.30;18.95;;;;;;;-148.88;100.00;78634.13;5100267;28;20016;-80
2023/01/21 02:28:46;;;;;;;56.72;19.08;;;;;;;-148.88;100.00;78634.13;5098389;28;20083;-80
2023/01/21 02:31:17;;;;;;;60.58;20.60;;;;;;;-148.88;100.00;78640.22;5099073;28;20521;-80
2023/01/21 02:33:56;;;;;;;53.72;19.23;;;;;;;-148.88;100.00;78640.22;5099102;28;20067;-80
2023/01/21 02:36:55;;;;;;;57.50;19.60;;;;;;;-148.88;100.00;78644.28;5099077;28;20027;-80
2023/01/21 02:39:40;;;;;;;60.78;21.00;;;;;;;-148.88;100.00;78654.47;5028026;28;20623;-81
2023/01/21 02:42:14;;;;;;;55.55;18.90;;;;;;;-148.88;100.00;78654.47;5099610;28;20046;-80
2023/01/21 02:44:42;;;;;;;56.30;17.98;;;;;;;-148.88;100.00;78654.47;5100040;28;20166;-79
2023/01/21 02:47:13;;;;;;;64.00;20.30;;;;;;;-148.88;100.00;78664.63;5098148;28;20088;-80
2023/01/21 02:49:44;;;;;;;62.20;20.55;;;;;;;-148.88;100.00;78660.56;5100195;28;20032;-80
2023/01/21 02:52:17;;;;;;;58.88;19.67;;;;;;;-148.88;100.00;78654.47;5100017;28;20052;-80
2023/01/21 02:54:49;;;;;;;57.92;20.00;;;;;;;-148.88;100.00;78658.53;5098549;28;20028;-80
2023/01/21 02:57:35;;;;;;;61.97;20.33;;;;;;;-148.88;100.00;78654.47;5100490;28;20474;-79
2023/01/21 03:00:07;;;;;;;61.03;20.65;;;;;;;-148.88;100.00;78662.59;5098961;28;20085;-79
2023/01/21 03:03:00;;;;;;;61.20;21.20;;;;;;;-148.88;100.00;78668.69;5099092;28;20030;-80
2023/01/21 03:06:00;;;;;;;73.65;21.08;;;;;;;-148.88;100.00;78674.78;5099747;28;20043;-80
2023/01/21 03:09:03;;;;;;;63.60;20.50;;;;;;;-148.88;100.00;78693.06;5101563;28;20031;-80
2023/01/21 03:11:29;;;;;;;70.50;21.38;;;;;;;-148.88;100.00;78686.97;5092582;28;20044;-80
2023/01/21 03:16:59;;;;;;;;;;;;;;;-148.88;100.00;78689.00;5102295;28;20511;-80
2023/01/21 03:19:49;;;;;;;66.97;20.65;;;;;;;-148.88;100.00;78674.78;5100601;28;19992;-81
2023/01/21 03:22:19;;;;;;;77.80;22.33;;;;;;;-148.88;100.00;78676.81;5099525;28;20024;-80
2023/01/21 03:24:48;;;;;;;72.35;19.70;;;;;;;-148.88;100.00;78682.91;5099406;28;20034;-80
2023/01/21 03:34:01;;;;;;;62.78;19.67;;;;;;;-148.88;100.00;78676.81;5098870;28;20374;-80
2023/01/21 03:36:52;;;;;;;73.60;22.08;;;;;;;-148.88;100.00;78662.59;5098958;28;20063;-80
2023/01/21 03:39:28;;;;;;;74.97;21.42;;;;;;;-148.88;100.00;78654.47;5098690;28;20381;-81
2023/01/21 03:41:54;;;;;;;68.50;22.60;;;;;;;-148.88;100.00;78648.34;5098899;28;20027;-80
2023/01/21 03:44:20;;;;;;;72.75;21.95;;;;;;;-148.88;100.00;78642.25;5099998;28;20024;-80
2023/01/21 03:47:16;;;;;;;76.03;22.27;;;;;;;-148.88;100.00;78628.03;5099540;28;20028;-80
2023/01/21 03:50:07;;;;;;;72.47;21.77;;;;;;;-148.88;100.00;78623.97;5089715;22;20104;-89
2023/01/21 03:52:33;;;;;;;65.03;21.08;;;;;;;-148.88;100.00;78609.75;5077940;28;20025;-89
2023/01/21 03:54:58;;;;;;;81.03;24.55;;;;;;;-148.88;100.00;78599.56;5076943;28;20107;-89
2023/01/21 03:57:23;;;;;;;70.10;21.52;;;;;;;-148.88;100.00;78597.53;5077032;28;20042;-88
2023/01/21 03:59:58;;;;;;;64.15;21.27;;;;;;;-148.88;100.00;78593.47;5080254;28;20020;-87
2023/01/21 04:02:30;;;;;;;64.15;19.13;;;;;;;-148.88;100.00;78593.47;5078387;28;20483;-87
2023/01/21 04:05:06;;;;;;;;;;;;;;;;;;;;;
2023/01/21 04:07:32;;;;;;;69.00;21.55;;;;;;;-148.88;100.00;78585.34;5079648;28;20088;-87
2023/01/21 04:10:03;;;;;;;79.82;24.48;;;;;;;-148.88;100.00;78587.38;5080134;28;20056;-88
2023/01/21 04:12:35;;;;;;;70.70;20.48;;;;;;;-148.88;100.00;78589.41;5080692;28;20115;-87
2023/01/21 04:15:03;;;;;;;63.03;20.73;;;;;;;-148.88;100.00;78593.47;5080971;28;20112;-87
2023/01/21 04:17:37;;;;;;;64.25;19.10;;;;;;;-148.88;100.00;78589.41;5080198;28;20111;-87
2023/01/21 04:20:03;;;;;;;72.95;22.80;;;;;;;-148.88;100.00;78591.44;5078139;28;20020;-86
2023/01/21 04:22:50;;;;;;;66.47;20.17;;;;;;;-148.88;100.00;78583.31;5076317;28;20050;-86
2023/01/21 04:25:16;;;;;;;67.03;21.60;;;;;;;-148.88;100.00;78589.41;5083175;22;20100;-80
2023/01/21 04:27:41;;;;;;;67.25;21.58;;;;;;;-148.88;100.00;78593.47;5060154;28;20048;-80
2023/01/21 04:30:07;;;;;;;73.55;22.90;;;;;;;-148.88;100.00;78591.44;5078269;28;20016;-79
2023/01/21 04:32:32;;;;;;;71.82;22.70;;;;;;;-148.88;100.00;78585.34;5078146;28;20020;-80
2023/01/21 04:34:57;;;;;;;72.35;20.23;;;;;;;-148.88;100.00;78573.16;5076506;28;20447;-79
2023/01/21 04:37:23;;;;;;;66.47;21.00;;;;;;;-148.88;100.00;78577.22;5059068;28;20074;-79
2023/01/21 04:39:48;;;;;;;63.92;19.10;;;;;;;-148.88;100.00;78585.34;5076539;28;20033;-79
2023/01/21 04:42:13;;;;;;;61.83;20.33;;;;;;;-148.88;100.00;78581.28;5059102;28;20025;-79
2023/01/21 04:44:39;;;;;;;63.63;20.17;;;;;;;-148.88;100.00;78581.28;5077318;28;20080;-80
2023/01/21 04:47:04;;;;;;;65.50;21.27;;;;;;;-148.88;100.00;78569.09;5078671;28;20364;-80
2023/01/21 04:49:29;;;;;;;70.55;21.02;;;;;;;-148.88;100.00;78569.09;5080300;28;20104;-80
2023/01/21 04:51:55;;;;;;;63.28;21.08;;;;;;;-148.88;100.00;78569.09;5061609;28;20028;-80
2023/01/21 04:54:20;;;;;;;58.42;19.83;;;;;;;-148.88;100.00;78554.84;5062153;28;20467;-79
2023/01/21 04:56:46;;;;;;;54.58;19.02;;;;;;;-148.88;100.00;78556.88;5079168;28;20020;-80
2023/01/21 04:59:11;;;;;;;59.22;17.63;;;;;;;-148.88;100.00;78558.94;5079420;28;20047;-80
2023/01/21 05:01:36;;;;;;;66.05;20.77;;;;;;;-148.88;100.00;78552.81;5079327;28;20024;-79
2023/01/21 05:04:02;;;;;;;57.42;19.00;;;;;;;-148.88;100.00;78558.94;5061629;28;20029;-79
2023/01/21 05:06:27;;;;;;;54.22;18.98;;;;;;;-148.88;100.00;78558.94;5079208;28;20031;-80
2023/01/21 05:08:52;;;;;;;62.40;20.48;;;;;;;-148.88;100.00;78556.88;5079282;28;20108;-80
2023/01/21 05:11:22;;;;;;;55.92;18.58;;;;;;;-148.88;100.00;78550.78;5061014;28;20027;-80
2023/01/21 05:13:47;;;;;;;50.95;18.48;;;;;;;-148.88;100.00;78550.78;5061376;28;20024;-80
2023/01/21 05:16:13;;;;;;;57.30;18.02;;;;;;;-148.88;100.00;78552.81;5079385;28;20437;-79
2023/01/21 05:18:42;;;;;;;60.03;18.85;;;;;;;-148.88;100.00;78550.78;5061129;28;20028;-80
2023/01/21 05:21:08;;;;;;;58.58;20.17;;;;;;;-148.88;100.00;78565.03;5079128;28;20024;-79
2023/01/21 05:23:33;;;;;;;57.88;19.90;;;;;;;-148.88;100.00;78560.97;5079066;28;20078;-79
2023/01/21 05:25:58;;;;;;;66.13;21.17;;;;;;;-148.88;100.00;78554.84;5079514;28;20036;-81
2023/01/21 05:28:23;;;;;;;57.90;19.73;;;;;;;-148.88;100.00;78560.97;5078817;28;20021;-83
2023/01/21 05:30:49;;;;;;;66.15;20.77;;;;;;;-148.88;100.00;78569.09;5078078;28;20031;-83
2023/01/21 05:33:14;;;;;;;61.72;21.13;;;;;;;-148.88;100.00;78573.16;5077346;28;20084;-81
2023/01/21 05:35:39;;;;;;;66.53;21.33;;;;;;;-148.88;100.00;78575.19;5077045;28;20100;-82
2023/01/21 05:38:05;;;;;;;67.25;22.23;;;;;;;-148.88;100.00;78583.31;5077558;28;20479;-82
2023/01/21 05:40:31;;;;;;;71.38;20.45;;;;;;;-148.88;100.00;78581.28;5082665;28;20028;-83
2023/01/21 05:42:56;;;;;;;78.20;21.95;;;;;;;-148.88;100.00;78579.25;5086367;28;20046;-82
2023/01/21 05:45:21;;;;;;;66.20;19.75;;;;;;;-148.88;100.00;78579.25;5084766;28;20028;-82
2023/01/21 05:47:46;;;;;;;71.57;22.05;;;;;;;-148.88;100.00;78585.34;5058550;28;20593;-82
2023/01/21 05:50:12;;;;;;;59.92;20.33;;;;;;;-148.88;100.00;78585.34;5059402;28;20034;-82
2023/01/21 05:52:38;;;;;;;62.28;20.52;;;;;;;-148.88;100.00;78581.28;5076816;28;20391;-82
2023/01/21 05:55:04;;;;;;;68.65;20.55;;;;;;;-148.88;100.00;78585.34;5058473;28;20368;-82
2023/01/21 05:57:29;;;;;;;56.17;18.85;;;;;;;-148.88;100.00;78581.28;5076071;28;20047;-82
2023/01/21 05:59:55;;;;;;;61.53;20.02;;;;;;;-148.88;100.00;78573.16;5076034;28;20411;-82
2023/01/21 06:02:20;;;;;;;57.03;19.80;;;;;;;-148.88;100.00;78577.22;5057719;28;20024;-80
2023/01/21 06:04:45;;;;;;;64.07;19.55;;;;;;;-148.88;100.00;78565.03;5076991;28;20024;-81
2023/01/21 06:07:10;;;;;;;56.72;20.42;;;;;;;-148.88;100.00;78569.09;5077135;28;20036;-80
2023/01/21 06:09:36;;;;;;;58.47;19.05;;;;;;;-148.88;100.00;78560.97;5074559;28;20395;-81
2023/01/21 06:12:01;;;;;;;54.22;19.08;;;;;;;-148.88;100.00;78565.03;5056859;28;20036;-81
2023/01/21 06:14:27;;;;;;;60.72;19.92;;;;;;;-148.88;100.00;78569.09;5056780;28;20020;-81
2023/01/21 06:16:52;;;;;;;60.78;20.08;;;;;;;-148.88;100.00;78569.09;5074844;28;20106;-81
2023/01/21 06:19:18;;;;;;;53.88;20.85;;;;;;;-148.88;100.00;78554.84;5074769;28;20021;-80
2023/01/21 06:21:43;;;;;;;54.38;18.20;;;;;;;-148.88;100.00;78556.88;5056877;28;20032;-80
2023/01/21 06:24:08;;;;;;;58.08;19.27;;;;;;;-148.88;100.00;78558.94;5074800;28;20024;-79
2023/01/21 06:26:33;;;;;;;57.90;19.70;;;;;;;-148.88;100.00;78558.94;5075417;28;20032;-81
2023/01/21 06:28:59;;;;;;;51.80;17.63;;;;;;;-148.88;100.00;78552.81;5076406;28;20031;-81
2023/01/21 06:31:24;;;;;;;52.60;19.65;;;;;;;-148.88;100.00;78556.88;5058616;28;20031;-80
2023/01/21 06:33:50;;;;;;;53.78;17.70;;;;;;;-148.88;100.00;78556.88;5057801;28;20078;-83
2023/01/21 06:36:15;;;;;;;59.58;20.35;;;;;;;-148.88;100.00;78552.81;5058555;28;20024;-81
2023/01/21 06:38:40;;;;;;;53.45;18.67;;;;;;;-148.88;100.00;78548.75;5076386;28;20025;-81
2023/01/21 06:41:05;;;;;;;49.08;17.33;;;;;;;-148.88;100.00;78542.66;5076416;28;20025;-82
2023/01/21 06:43:31;;;;;;;60.90;20.08;;;;;;;-148.88;100.00;78565.03;5076569;28;20030;-80
2023/01/21 06:45:56;;;;;;;51.03;18.70;;;;;;;-148.88;100.00;78558.94;5056521;28;20034;-82
2023/01/21 06:48:21;;;;;;;54.70;19.08;;;;;;;-148.88;100.00;78558.94;5056225;28;20028;-81
2023/01/21 06:50:46;;;;;;;61.75;20.25;;;;;;;-148.88;100.00;78567.06;5057650;28;20074;-82
2023/01/21 06:53:12;;;;;;;53.03;19.58;;;;;;;-148.88;100.00;78585.34;5058001;28;20030;-82
2023/01/21 06:55:37;;;;;;;53.67;18.77;;;;;;;-148.88;100.00;78569.09;5057731;28;20028;-82
2023/01/21 06:58:03;;;;;;;63.45;21.38;;;;;;;-148.88;100.00;78577.22;5075750;28;20032;-82
2023/01/21 07:00:28;;;;;;;63.05;20.88;;;;;;;-148.88;100.00;78581.28;5057338;28;20447;-82
2023/01/21 07:02:59;;;;;;;66.53;20.40;;;;;;;-148.88;100.00;78581.28;5075805;28;20502;-82
2023/01/21 07:05:25;;;;;;;56.38;19.45;;;;;;;-148.88;100.00;78595.50;5057056;28;20028;-82
2023/01/21 07:07:55;;;;;;;50.17;17.65;;;;;;;-148.88;100.00;78605.69;5075537;28;20340;-82
2023/01/21 07:10:22;;;;;;;60.92;20.58;;;;;;;-148.88;100.00;78599.56;5074814;28;20525;-81
2023/01/21 07:12:47;;;;;;;61.55;20.63;;;;;;;-148.88;100.00;78601.59;5057685;28;20052;-81
2023/01/21 07:15:12;;;;;;;69.18;20.98;;;;;;;-148.88;100.00;78611.78;5057762;28;20107;-82
2023/01/21 07:17:38;;;;;;;66.53;21.52;;;;;;;-148.88;100.00;78613.81;5075623;28;20020;-81
2023/01/21 07:20:04;;;;;;;65.88;20.38;;;;;;;-148.88;100.00;78619.91;5057327;28;20483;-81
2023/01/21 07:22:31;;;;;;;71.53;22.73;;;;;;;-148.88;100.00;78613.81;5073796;28;20023;-81
2023/01/21 07:24:57;;;;;;;63.60;22.33;;;;;;;-148.88;100.00;78615.84;5073896;28;20029;-81
2023/01/21 07:27:22;;;;;;;63.30;20.33;;;;;;;-148.88;100.00;78615.84;5055745;28;20181;-81
2023/01/21 07:29:47;;;;;;;69.90;22.33;;;;;;;-148.88;100.00;78619.91;5074142;28;20036;-80
2023/01/21 07:32:12;;;;;;;79.03;22.83;;;;;;;-148.88;100.00;78617.88;5074255;28;20505;-81
2023/01/21 07:34:38;;;;;;;72.95;23.30;;;;;;;-148.88;100.00;78615.84;5074284;28;20078;-83
2023/01/21 07:37:03;;;;;;;66.25;20.60;;;;;;;-148.88;100.00;78626.00;5056872;28;20103;-80
2023/01/21 07:39:28;;;;;;;74.97;22.63;;;;;;;-148.88;100.00;78619.91;5075410;28;20078;-83
2023/01/21 07:41:54;;;;;;;72.70;23.13;;;;;;;-148.88;100.00;78630.06;5057648;28;20395;-81
2023/01/21 07:44:19;;;;;;;67.68;22.60;;;;;;;-148.88;100.00;78619.91;5056902;28;20036;-81
2023/01/21 07:46:44;;;;;;;75.72;22.58;;;;;;;-148.88;100.00;78626.00;5075019;28;20032;-80
2023/01/21 07:49:15;;;;;;;65.70;20.90;;;;;;;-148.88;100.00;78619.91;5057396;28;20028;-83
2023/01/21 07:51:41;;;;;;;66.90;20.80;;;;;;;-148.88;100.00;78617.88;5057255;28;20028;-82
2023/01/21 07:54:06;;;;;;;68.68;23.55;;;;;;;-148.88;100.00;78621.94;5075224;28;20024;-83
2023/01/21 07:56:31;;;;;;;75.85;22.70;;;;;;;-148.88;100.00;78617.88;5075133;28;20056;-82
2023/01/21 07:58:57;;;;;;;77.82;21.42;;;;;;;-148.88;100.00;78611.78;5055533;28;20418;-81
2023/01/21 08:01:25;;;;;;;67.88;22.98;;;;;;;-148.88;100.00;78615.84;5055233;28;20024;-82
2023/01/21 08:03:51;;;;;;;72.35;23.55;;;;;;;-148.88;100.00;78623.97;5073748;28;20023;-82
2023/01/21 08:06:16;;;;;;;74.22;22.17;;;;;;;-148.88;100.00;78630.06;5055455;28;20032;-81
2023/01/21 08:08:41;;;;;;;79.35;22.20;;;;;;;-148.88;100.00;78628.03;5055677;28;20032;-81
2023/01/21 08:11:06;;;;;;;76.53;23.08;;;;;;;-148.88;100.00;78626.00;5074235;28;20047;-81
2023/01/21 08:13:32;;;;;;;70.53;20.20;;;;;;;-148.88;100.00;78623.97;5073920;28;20107;-82
2023/01/21 08:15:57;;;;;;;73.43;23.33;;;;;;;-148.88;100.00;78617.88;5056257;28;20024;-82
2023/01/21 08:18:23;;;;;;;74.85;22.65;;;;;;;-148.88;100.00;78609.75;5057198;28;20119;-82
2023/01/21 08:20:56;;;;;;;69.90;21.17;;;;;;;-148.88;100.00;78605.69;5075207;28;20505;-83
2023/01/21 08:23:21;;;;;;;71.80;21.55;;;;;;;-148.88;100.00;78603.63;5079591;28;20039;-82
2023/01/21 08:25:47;;;;;;;72.18;21.75;;;;;;;-148.88;100.00;78603.63;5078665;28;20028;-82
2023/01/21 08:28:13;;;;;;;66.07;20.08;;;;;;;-148.88;100.00;78603.63;5078793;28;20397;-82
2023/01/21 08:30:38;;;;;;;67.35;20.48;;;;;;;-148.88;100.00;78601.59;5061408;28;20115;-83
2023/01/21 08:33:03;;;;;;;67.32;20.77;;;;;;;-148.88;100.00;78593.47;5085450;28;20028;-82
2023/01/21 08:35:29;;;;;;;64.22;21.25;;;;;;;-148.88;100.00;78597.53;5062046;28;20017;-83
2023/01/21 08:37:56;;;;;;;65.65;19.73;;;;;;;-148.88;100.00;78593.47;5060350;28;20417;-82
2023/01/21 08:40:24;;;;;;;59.53;20.77;;;;;;;-148.88;100.00;78583.31;5078152;28;20077;-83
2023/01/21 08:42:49;;;;;;;66.18;20.67;;;;;;;-148.88;100.00;78577.22;5060484;28;20021;-83
2023/01/21 08:45:15;;;;;;;69.20;20.33;;;;;;;-148.88;100.00;78577.22;5060492;28;20067;-82
2023/01/21 08:47:40;;;;;;;56.05;20.40;;;;;;;-148.88;100.00;78573.16;5059596;28;20024;-83
2023/01/21 08:50:06;;;;;;;65.13;19.85;;;;;;;-148.88;100.00;78569.09;5060849;28;20017;-82
2023/01/21 08:52:32;;;;;;;54.97;19.48;;;;;;;-148.88;100.00;78575.19;5060078;28;20486;-82
2023/01/21 08:54:57;;;;;;;70.75;20.42;;;;;;;-148.88;100.00;78573.16;5060466;28;20040;-82
2023/01/21 08:57:22;;;;;;;65.50;20.17;;;;;;;-148.88;100.00;78571.13;5078687;28;20020;-82
2023/01/21 08:59:47;;;;;;;65.15;20.25;;;;;;;-148.88;100.00;78569.09;5060431;28;20483;-81
2023/01/21 09:02:13;;;;;;;63.15;19.25;;;;;;;-148.88;100.00;78569.09;5060409;28;20032;-82
2023/01/21 09:04:38;;;;;;;63.50;18.73;;;;;;;-148.88;100.00;78565.03;5060622;28;20046;-82
2023/01/21 09:07:09;;;;;;;63.65;20.52;;;;;;;-148.88;100.00;78560.97;5060349;28;20431;-81
2023/01/21 09:09:34;;;;;;;65.43;19.42;;;;;;;-148.88;100.00;78556.88;5079468;28;20036;-82
2023/01/21 09:11:59;;;;;;;61.95;19.95;;;;;;;-148.88;100.00;78552.81;5076710;28;20032;-82
2023/01/21 09:14:25;;;;;;;58.83;17.75;;;;;;;-148.88;100.00;78558.94;5058413;28;20029;-81
2023/01/21 09:16:51;;;;;;;59.03;19.33;;;;;;;-148.88;100.00;78560.97;5076302;28;20017;-82
2023/01/21 09:19:16;;;;;;;54.53;19.35;;;;;;;-148.88;100.00;78569.09;5076762;28;20376;-81
2023/01/21 09:21:41;;;;;;;62.42;21.42;;;;;;;-148.88;100.00;78573.16;5076770;28;20036;-82
2023/01/21 09:24:07;;;;;;;60.45;19.02;;;;;;;-148.88;100.00;78583.31;5076576;28;20025;-82
2023/01/21 09:26:32;;;;;;;60.72;19.10;;;;;;;-148.88;100.00;78573.16;5076986;28;20036;-82
2023/01/21 09:29:00;;;;;;;55.45;17.42;;;;;;;-148.88;100.00;78587.38;5060338;28;20044;-82
2023/01/21 09:31:28;;;;;;;67.45;19.45;;;;;;;-148.88;100.00;78589.41;5078730;28;20403;-82
2023/01/21 09:33:58;;;;;;;63.63;19.48;;;;;;;-148.88;100.00;78595.50;5078234;28;20032;-83
2023/01/21 09:36:27;;;;;;;68.07;18.83;;;;;;;-148.88;100.00;78593.47;5060728;28;20166;-83
2023/01/21 09:38:53;;;;;;;60.63;20.60;;;;;;;-148.88;100.00;78597.53;5076892;28;20063;-82
2023/01/21 09:41:24;;;;;;;55.85;17.48;;;;;;;-148.88;100.00;78589.41;5077349;28;20036;-82
2023/01/21 09:44:27;;;;;;;58.95;18.02;;;;;;;-148.88;100.00;78585.34;5077109;28;20024;-82
2023/01/21 09:47:03;;;;;;;47.90;16.63;;;;;;;-148.88;100.00;78581.28;5079980;28;20140;-82
2023/01/21 09:49:42;;;;;;;52.50;18.10;;;;;;;-148.88;100.00;78587.38;5076068;28;20055;-82
2023/01/21 09:52:27;;;;;;;61.33;19.60;;;;;;;-148.88;100.00;78593.47;5058279;28;20376;-82
2023/01/21 09:54:53;;;;;;;53.35;18.23;;;;;;;-148.88;100.00;78591.44;5063503;28;20035;-82
2023/01/21 09:57:32;;;;;;;56.05;18.05;;;;;;;-148.88;100.00;78589.41;5081354;28;20036;-81
2023/01/21 10:00:06;;;;;;;55.67;19.83;;;;;;;-148.88;100.00;78597.53;5060383;28;20115;-81
2023/01/21 10:02:38;;;;;;;;;;;;;;;-148.88;100.00;78595.50;5076471;28;20089;-82
2023/01/21 10:05:27;;;;;;;52.17;16.52;;;;;;;-148.88;100.00;78595.50;5077358;28;19916;-82
2023/01/21 10:08:04;;;;;;;49.38;16.67;;;;;;;-148.88;100.00;78591.44;5076492;28;20029;-82
2023/01/21 10:10:51;;;;;;;51.47;17.88;;;;;;;-148.88;100.00;78597.53;5079424;28;20032;-82
2023/01/21 10:13:17;;;;;;;58.13;17.65;;;;;;;-148.88;100.00;78593.47;5059316;28;20031;-80
2023/01/21 10:15:56;;;;;;;49.80;16.88;;;;;;;-148.88;100.00;78593.47;5077453;28;20394;-81
2023/01/21 10:18:27;;;;;;;52.95;17.95;;;;;;;-148.88;100.00;78589.41;5058825;28;20463;-81
2023/01/21 10:20:57;;;;;;;54.88;18.80;;;;;;;-148.88;100.00;78581.28;5058840;28;20036;-81
2023/01/21 10:23:29;;;;;;;59.28;17.98;;;;;;;-148.88;100.00;78577.22;5058551;28;20025;-80
2023/01/21 10:25:58;;;;;;;56.78;18.95;;;;;;;-148.88;100.00;78577.22;5075379;28;20032;-80
2023/01/21 10:28:27;;;;;;;52.50;16.67;;;;;;;-148.88;100.00;78579.25;5057050;28;20036;-80
2023/01/21 10:30:57;;;;;;;58.63;19.05;;;;;;;-148.88;100.00;78573.16;5075289;28;20095;-81
2023/01/21 10:33:25;;;;;;;60.65;17.88;;;;;;;-148.88;100.00;78573.16;5058275;28;20151;-81
2023/01/21 10:36:09;;;;;;;60.05;18.30;;;;;;;-148.88;100.00;78569.09;5058720;28;20024;-81
2023/01/21 10:39:05;;;;;;;55.75;19.23;;;;;;;-148.88;100.00;78575.19;5077185;28;20024;-81
2023/01/21 10:41:50;;;;;;;52.60;18.48;;;;;;;-148.88;100.00;78571.13;5059244;28;20059;-81
2023/01/21 10:44:38;;;;;;;51.70;18.38;;;;;;;-148.88;100.00;78571.13;5057659;28;20084;-81
2023/01/21 10:47:26;;;;;;;57.83;18.88;;;;;;;-148.88;100.00;78560.97;5058525;28;20027;-81
2023/01/21 10:50:35;;;;;;;53.17;17.52;;;;;;;-148.88;100.00;78569.09;5059286;28;20031;-80
2023/01/21 10:53:17;;;;;;;58.05;17.73;;;;;;;-148.88;100.00;78569.09;5080197;28;20029;-81
2023/01/21 10:55:51;;;;;;;66.85;18.17;;;;;;;-148.88;100.00;78567.06;5059286;28;20395;-81
2023/01/21 10:58:26;;;;;;;51.20;17.95;;;;;;;-148.88;100.00;78544.69;5077108;28;20031;-81
2023/01/21 11:00:54;;;;;;;49.92;18.00;;;;;;;-148.88;100.00;78550.78;5075204;28;20028;-80
2023/01/21 11:03:30;;;;;;;54.80;20.70;;;;;;;-148.88;100.00;78556.88;5075896;28;20021;-81
2023/01/21 11:05:59;;;;;;;56.13;18.75;;;;;;;-148.88;100.00;78548.75;5058424;28;20405;-81
2023/01/21 11:08:26;;;;;;;52.47;18.95;;;;;;;-148.88;100.00;78540.63;5076270;28;20074;-81
2023/01/21 11:10:54;;;;;;;60.53;19.50;;;;;;;-148.88;100.00;78536.56;5076642;28;20441;-80
2023/01/21 11:13:20;;;;;;;61.33;20.40;;;;;;;-148.88;100.00;78538.59;5076948;28;20031;-81
2023/01/21 11:15:53;;;;;;;54.70;18.85;;;;;;;-148.88;100.00;78540.63;5057920;28;20074;-81